Cote D IVoirian Star — A8SL4 — position and weather

sailwx.info

Track history (hours):
 
Tides and Currents Weather Stations Pressure Air Temp Water Temp Dewpoint Dewpoint Depression Visibility Wind Speed Wind Dir Waves Ship Positions

Cote D IVoirian Star

Last reported at 2014-Oct-21 04:34 UTC. Time now 2014-Oct-21 05:28 UTC.
Position N 51°16' E 004°17'.

Length 185 m; draft 8.2 m.

Type: Cargo ship. MMSI: 636014241.

Date/timePositionNaut miles runAvg speedWind from/ knotsBaromVisibWave heightAir tempDewpointWater temp
2014-Oct-21 04:34N 51°16' E 004°17'1 1.2
2014-Oct-21 03:28N 51°16' E 004°15'0 0.0
2014-Oct-21 02:31N 51°16' E 004°15'0 0.0
2014-Oct-21 01:28N 51°16' E 004°15'0 0.0
2014-Oct-21 00:31N 51°16' E 004°15'0 0.0
2014-Oct-20 23:31N 51°16' E 004°15'0 0.0
2014-Oct-20 22:31N 51°16' E 004°15'0 0.0
2014-Oct-20 21:28N 51°16' E 004°15'0 0.0
2014-Oct-20 20:32N 51°16' E 004°15'0 0.0
2014-Oct-20 19:28N 51°16' E 004°15'0 0.0
2014-Oct-20 18:31N 51°16' E 004°15'0 0.0
2014-Oct-20 17:31N 51°16' E 004°15'0 0.0
2014-Oct-20 16:31N 51°16' E 004°15'0 0.0
2014-Oct-20 15:31N 51°16' E 004°15'0 0.0
2014-Oct-20 14:28N 51°16' E 004°15'0 0.0
2014-Oct-20 13:31N 51°16' E 004°15'0 0.0
2014-Oct-20 12:31N 51°16' E 004°15'0 0.0
2014-Oct-20 11:28N 51°16' E 004°15'0 0.0
2014-Oct-20 10:31N 51°16' E 004°15'0 0.0
2014-Oct-20 09:28N 51°16' E 004°15'0 0.0
2014-Oct-20 08:31N 51°16' E 004°15'0 0.0
2014-Oct-20 07:31N 51°16' E 004°15'0 0.0
2014-Oct-20 06:31N 51°16' E 004°15'0 0.0
2014-Oct-20 05:32N 51°16' E 004°15'0 0.0
2014-Oct-20 04:31N 51°16' E 004°15'0 0.0
2014-Oct-20 03:31N 51°16' E 004°15'0 0.0
2014-Oct-20 02:28N 51°16' E 004°15'0 0.0
2014-Oct-20 01:31N 51°16' E 004°15'0 0.0
2014-Oct-20 00:31N 51°16' E 004°15'0 0.0
2014-Oct-19 23:10N 51°16' E 004°15'0 0.0
2014-Oct-19 22:31N 51°16' E 004°15'0 0.0
2014-Oct-19 21:31N 51°16' E 004°15'0 0.0
2014-Oct-19 20:31N 51°16' E 004°15'0 0.0
2014-Oct-19 19:31N 51°16' E 004°15'0 0.0
2014-Oct-19 18:31N 51°16' E 004°15'0 0.0
2014-Oct-19 17:31N 51°16' E 004°15'0 0.0
2014-Oct-19 16:28N 51°16' E 004°15'0 0.0
2014-Oct-19 15:31N 51°16' E 004°15'0 0.0
2014-Oct-19 14:31N 51°16' E 004°15'0 0.0
2014-Oct-19 13:31N 51°16' E 004°15'0 0.0
2014-Oct-19 12:31N 51°16' E 004°15'0 0.0
2014-Oct-19 11:28N 51°16' E 004°15'0 0.0
2014-Oct-19 10:28N 51°16' E 004°15'0 0.0
2014-Oct-19 09:31N 51°16' E 004°15'0 0.0
2014-Oct-19 08:31N 51°16' E 004°15'0 0.0
2014-Oct-19 07:33N 51°16' E 004°15'1 1.3
2014-Oct-19 06:34N 51°16' E 004°17'2 2.0
2014-Oct-19 05:34N 51°18' E 004°18'9 8.7
2014-Oct-19 04:33N 51°22' E 004°06'8 8.1
2014-Oct-19 03:34N 51°21' E 003°53'1110.9
2014-Oct-19 02:33N 51°26' E 003°38'1010.2
2014-Oct-19 01:33N 51°24' E 003°22'1413.8
2014-Oct-19 00:33N 51°23' E 002°60'1312.3
2014-Oct-18 23:32N 51°22' E 002°39'1313.2
2014-Oct-18 22:33N 51°19' E 002°20'1716.9
2014-Oct-18 21:33N 51°10' E 001°56'1818.2
2014-Oct-18 20:33N 50°59' E 001°34'2120.9
2014-Oct-18 19:32N 50°40' E 001°18'  
Track history (hours):
 
Tides and Currents Weather Stations Pressure Air Temp Water Temp Dewpoint Dewpoint Depression Visibility Wind Speed Wind Dir Waves Ship Positions

Cote D IVoirian Star

Last reported at 2014-Oct-21 04:34 UTC. Time now 2014-Oct-21 05:28 UTC.
Position N 51°16' E 004°17'.

Length 185 m; draft 8.2 m.

Type: Cargo ship. MMSI: 636014241.

Date/timePositionNaut miles runAvg speedWind from/ knotsBaromVisibWave heightAir tempDewpointWater temp
2014-Oct-21 04:34N 51°16' E 004°17'1 1.2
2014-Oct-21 03:28N 51°16' E 004°15'0 0.0
2014-Oct-21 02:31N 51°16' E 004°15'0 0.0
2014-Oct-21 01:28N 51°16' E 004°15'0 0.0
2014-Oct-21 00:31N 51°16' E 004°15'0 0.0
2014-Oct-20 23:31N 51°16' E 004°15'0 0.0
2014-Oct-20 22:31N 51°16' E 004°15'0 0.0
2014-Oct-20 21:28N 51°16' E 004°15'0 0.0
2014-Oct-20 20:32N 51°16' E 004°15'0 0.0
2014-Oct-20 19:28N 51°16' E 004°15'0 0.0
2014-Oct-20 18:31N 51°16' E 004°15'0 0.0
2014-Oct-20 17:31N 51°16' E 004°15'0 0.0
2014-Oct-20 16:31N 51°16' E 004°15'0 0.0
2014-Oct-20 15:31N 51°16' E 004°15'0 0.0
2014-Oct-20 14:28N 51°16' E 004°15'0 0.0
2014-Oct-20 13:31N 51°16' E 004°15'0 0.0
2014-Oct-20 12:31N 51°16' E 004°15'0 0.0
2014-Oct-20 11:28N 51°16' E 004°15'0 0.0
2014-Oct-20 10:31N 51°16' E 004°15'0 0.0
2014-Oct-20 09:28N 51°16' E 004°15'0 0.0
2014-Oct-20 08:31N 51°16' E 004°15'0 0.0
2014-Oct-20 07:31N 51°16' E 004°15'0 0.0
2014-Oct-20 06:31N 51°16' E 004°15'0 0.0
2014-Oct-20 05:32N 51°16' E 004°15'0 0.0
2014-Oct-20 04:31N 51°16' E 004°15'0 0.0
2014-Oct-20 03:31N 51°16' E 004°15'0 0.0
2014-Oct-20 02:28N 51°16' E 004°15'0 0.0
2014-Oct-20 01:31N 51°16' E 004°15'0 0.0
2014-Oct-20 00:31N 51°16' E 004°15'0 0.0
2014-Oct-19 23:10N 51°16' E 004°15'0 0.0
2014-Oct-19 22:31N 51°16' E 004°15'0 0.0
2014-Oct-19 21:31N 51°16' E 004°15'0 0.0
2014-Oct-19 20:31N 51°16' E 004°15'0 0.0
2014-Oct-19 19:31N 51°16' E 004°15'0 0.0
2014-Oct-19 18:31N 51°16' E 004°15'0 0.0
2014-Oct-19 17:31N 51°16' E 004°15'0 0.0
2014-Oct-19 16:28N 51°16' E 004°15'0 0.0
2014-Oct-19 15:31N 51°16' E 004°15'0 0.0
2014-Oct-19 14:31N 51°16' E 004°15'0 0.0
2014-Oct-19 13:31N 51°16' E 004°15'0 0.0
2014-Oct-19 12:31N 51°16' E 004°15'0 0.0
2014-Oct-19 11:28N 51°16' E 004°15'0 0.0
2014-Oct-19 10:28N 51°16' E 004°15'0 0.0
2014-Oct-19 09:31N 51°16' E 004°15'0 0.0
2014-Oct-19 08:31N 51°16' E 004°15'0 0.0
2014-Oct-19 07:33N 51°16' E 004°15'1 1.3
2014-Oct-19 06:34N 51°16' E 004°17'2 2.0
2014-Oct-19 05:34N 51°18' E 004°18'9 8.7
2014-Oct-19 04:33N 51°22' E 004°06'8 8.1
2014-Oct-19 03:34N 51°21' E 003°53'1110.9
2014-Oct-19 02:33N 51°26' E 003°38'1010.2
2014-Oct-19 01:33N 51°24' E 003°22'1413.8
2014-Oct-19 00:33N 51°23' E 002°60'1312.3
2014-Oct-18 23:32N 51°22' E 002°39'1313.2
2014-Oct-18 22:33N 51°19' E 002°20'1716.9
2014-Oct-18 21:33N 51°10' E 001°56'1818.2
2014-Oct-18 20:33N 50°59' E 001°34'2120.9
2014-Oct-18 19:32N 50°40' E 001°18'  

Dump ship's entire track history